sensor_id;sensor_type;location;lat;lon;timestamp;P1;durP1;ratioP1;P2;durP2;ratioP2
27899;SDS011;15243;50.726;7.080;2022-08-18T00:02:15;16.98;;;14.57;;
27899;SDS011;15243;50.726;7.080;2022-08-18T00:04:54;17.65;;;13.77;;
27899;SDS011;15243;50.726;7.080;2022-08-18T00:07:24;17.08;;;14.77;;
27899;SDS011;15243;50.726;7.080;2022-08-18T00:09:56;17.90;;;14.75;;
27899;SDS011;15243;50.726;7.080;2022-08-18T00:12:26;15.98;;;13.80;;
27899;SDS011;15243;50.726;7.080;2022-08-18T00:14:58;15.82;;;14.15;;
27899;SDS011;15243;50.726;7.080;2022-08-18T00:17:29;18.90;;;14.52;;
27899;SDS011;15243;50.726;7.080;2022-08-18T00:19:57;15.80;;;14.10;;
27899;SDS011;15243;50.726;7.080;2022-08-18T00:22:24;18.95;;;14.70;;
27899;SDS011;15243;50.726;7.080;2022-08-18T00:24:52;16.48;;;14.55;;
27899;SDS011;15243;50.726;7.080;2022-08-18T00:27:21;17.70;;;14.13;;
27899;SDS011;15243;50.726;7.080;2022-08-18T00:29:55;17.65;;;14.98;;
27899;SDS011;15243;50.726;7.080;2022-08-18T00:32:30;19.38;;;15.27;;
27899;SDS011;15243;50.726;7.080;2022-08-18T00:37:38;20.20;;;16.23;;
27899;SDS011;15243;50.726;7.080;2022-08-18T00:40:06;22.30;;;16.35;;
27899;SDS011;15243;50.726;7.080;2022-08-18T00:42:41;18.70;;;16.13;;
27899;SDS011;15243;50.726;7.080;2022-08-18T00:45:12;21.13;;;17.15;;
27899;SDS011;15243;50.726;7.080;2022-08-18T00:47:45;19.13;;;14.95;;
27899;SDS011;15243;50.726;7.080;2022-08-18T00:50:14;18.08;;;15.57;;
27899;SDS011;15243;50.726;7.080;2022-08-18T00:52:48;22.38;;;18.10;;
27899;SDS011;15243;50.726;7.080;2022-08-18T00:55:20;18.77;;;16.80;;
27899;SDS011;15243;50.726;7.080;2022-08-18T00:57:50;22.58;;;16.55;;
27899;SDS011;15243;50.726;7.080;2022-08-18T01:00:20;26.83;;;18.75;;
27899;SDS011;15243;50.726;7.080;2022-08-18T01:02:49;27.45;;;20.70;;
27899;SDS011;15243;50.726;7.080;2022-08-18T01:07:52;23.42;;;19.92;;
27899;SDS011;15243;50.726;7.080;2022-08-18T01:10:20;26.40;;;21.92;;
27899;SDS011;15243;50.726;7.080;2022-08-18T01:12:50;27.30;;;21.73;;
27899;SDS011;15243;50.726;7.080;2022-08-18T01:15:19;23.55;;;20.55;;
27899;SDS011;15243;50.726;7.080;2022-08-18T01:17:59;27.08;;;20.58;;
27899;SDS011;15243;50.726;7.080;2022-08-18T01:24:04;26.40;;;20.30;;
27899;SDS011;15243;50.726;7.080;2022-08-18T01:26:34;24.98;;;19.90;;
27899;SDS011;15243;50.726;7.080;2022-08-18T01:29:11;25.65;;;22.80;;
27899;SDS011;15243;50.726;7.080;2022-08-18T01:31:46;29.00;;;22.83;;
27899;SDS011;15243;50.726;7.080;2022-08-18T01:34:22;25.88;;;21.88;;
27899;SDS011;15243;50.726;7.080;2022-08-18T01:36:51;22.55;;;20.15;;
27899;SDS011;15243;50.726;7.080;2022-08-18T01:39:20;24.98;;;21.48;;
27899;SDS011;15243;50.726;7.080;2022-08-18T01:42:07;25.77;;;20.73;;
27899;SDS011;15243;50.726;7.080;2022-08-18T01:44:35;25.25;;;21.65;;
27899;SDS011;15243;50.726;7.080;2022-08-18T01:47:02;28.52;;;23.42;;
27899;SDS011;15243;50.726;7.080;2022-08-18T01:49:29;29.10;;;23.50;;
27899;SDS011;15243;50.726;7.080;2022-08-18T01:51:56;27.65;;;22.70;;
27899;SDS011;15243;50.726;7.080;2022-08-18T01:54:23;27.42;;;24.27;;
27899;SDS011;15243;50.726;7.080;2022-08-18T01:56:55;26.50;;;22.77;;
27899;SDS011;15243;50.726;7.080;2022-08-18T01:59:22;31.13;;;25.00;;
27899;SDS011;15243;50.726;7.080;2022-08-18T02:01:48;26.10;;;21.10;;
27899;SDS011;15243;50.726;7.080;2022-08-18T02:04:22;29.87;;;23.43;;
27899;SDS011;15243;50.726;7.080;2022-08-18T02:07:04;28.95;;;24.25;;
27899;SDS011;15243;50.726;7.080;2022-08-18T02:09:33;30.45;;;24.33;;
27899;SDS011;15243;50.726;7.080;2022-08-18T02:12:02;29.52;;;24.38;;
27899;SDS011;15243;50.726;7.080;2022-08-18T02:14:30;32.33;;;25.17;;
27899;SDS011;15243;50.726;7.080;2022-08-18T02:16:58;33.72;;;25.77;;
27899;SDS011;15243;50.726;7.080;2022-08-18T02:19:34;29.80;;;25.15;;
27899;SDS011;15243;50.726;7.080;2022-08-18T02:22:04;31.70;;;25.77;;
27899;SDS011;15243;50.726;7.080;2022-08-18T02:24:33;33.55;;;26.35;;
27899;SDS011;15243;50.726;7.080;2022-08-18T02:27:00;34.55;;;27.33;;
27899;SDS011;15243;50.726;7.080;2022-08-18T02:29:27;32.28;;;26.48;;
27899;SDS011;15243;50.726;7.080;2022-08-18T02:31:54;34.03;;;26.92;;
27899;SDS011;15243;50.726;7.080;2022-08-18T02:34:21;31.63;;;26.70;;
27899;SDS011;15243;50.726;7.080;2022-08-18T02:36:48;30.80;;;25.17;;
27899;SDS011;15243;50.726;7.080;2022-08-18T02:39:15;32.20;;;24.65;;
27899;SDS011;15243;50.726;7.080;2022-08-18T02:41:43;31.08;;;25.17;;
27899;SDS011;15243;50.726;7.080;2022-08-18T02:44:10;33.28;;;28.05;;
27899;SDS011;15243;50.726;7.080;2022-08-18T02:46:37;33.85;;;27.90;;
27899;SDS011;15243;50.726;7.080;2022-08-18T02:49:04;32.55;;;28.45;;
27899;SDS011;15243;50.726;7.080;2022-08-18T02:51:33;30.00;;;25.17;;
27899;SDS011;15243;50.726;7.080;2022-08-18T02:54:00;29.40;;;25.00;;
27899;SDS011;15243;50.726;7.080;2022-08-18T02:56:28;32.75;;;27.75;;
27899;SDS011;15243;50.726;7.080;2022-08-18T02:59:08;36.85;;;28.05;;
27899;SDS011;15243;50.726;7.080;2022-08-18T03:01:38;30.95;;;26.58;;
27899;SDS011;15243;50.726;7.080;2022-08-18T03:04:09;28.73;;;23.90;;
27899;SDS011;15243;50.726;7.080;2022-08-18T03:06:38;30.95;;;25.17;;
27899;SDS011;15243;50.726;7.080;2022-08-18T03:09:06;30.00;;;24.73;;
27899;SDS011;15243;50.726;7.080;2022-08-18T03:11:34;31.70;;;23.92;;
27899;SDS011;15243;50.726;7.080;2022-08-18T03:14:02;31.48;;;24.05;;
27899;SDS011;15243;50.726;7.080;2022-08-18T03:16:31;28.02;;;23.40;;
27899;SDS011;15243;50.726;7.080;2022-08-18T03:18:59;30.23;;;23.13;;
27899;SDS011;15243;50.726;7.080;2022-08-18T03:21:27;27.27;;;23.20;;
27899;SDS011;15243;50.726;7.080;2022-08-18T03:23:57;27.80;;;23.00;;
27899;SDS011;15243;50.726;7.080;2022-08-18T03:26:27;30.13;;;24.13;;
27899;SDS011;15243;50.726;7.080;2022-08-18T03:28:55;35.05;;;27.83;;
27899;SDS011;15243;50.726;7.080;2022-08-18T03:31:24;35.60;;;27.25;;
27899;SDS011;15243;50.726;7.080;2022-08-18T03:33:53;33.72;;;27.05;;
27899;SDS011;15243;50.726;7.080;2022-08-18T03:36:27;28.48;;;23.67;;
27899;SDS011;15243;50.726;7.080;2022-08-18T03:38:57;31.33;;;25.65;;
27899;SDS011;15243;50.726;7.080;2022-08-18T03:41:27;30.40;;;24.55;;
27899;SDS011;15243;50.726;7.080;2022-08-18T03:44:16;34.13;;;27.08;;
27899;SDS011;15243;50.726;7.080;2022-08-18T03:46:43;33.33;;;25.10;;
27899;SDS011;15243;50.726;7.080;2022-08-18T03:49:10;40.50;;;31.35;;
27899;SDS011;15243;50.726;7.080;2022-08-18T03:51:40;38.85;;;29.75;;
27899;SDS011;15243;50.726;7.080;2022-08-18T03:54:09;36.20;;;29.05;;
27899;SDS011;15243;50.726;7.080;2022-08-18T03:56:38;38.15;;;29.15;;
27899;SDS011;15243;50.726;7.080;2022-08-18T03:59:08;39.08;;;29.13;;
27899;SDS011;15243;50.726;7.080;2022-08-18T04:01:39;39.50;;;31.03;;
27899;SDS011;15243;50.726;7.080;2022-08-18T04:04:08;39.65;;;30.30;;
27899;SDS011;15243;50.726;7.080;2022-08-18T04:07:19;36.60;;;28.92;;
27899;SDS011;15243;50.726;7.080;2022-08-18T04:09:30;43.67;;;32.00;;
27899;SDS011;15243;50.726;7.080;2022-08-18T04:12:01;40.45;;;30.08;;
27899;SDS011;15243;50.726;7.080;2022-08-18T04:14:41;41.65;;;31.10;;
27899;SDS011;15243;50.726;7.080;2022-08-18T04:17:11;36.92;;;28.95;;
27899;SDS011;15243;50.726;7.080;2022-08-18T04:19:38;36.33;;;29.63;;
27899;SDS011;15243;50.726;7.080;2022-08-18T04:22:05;43.40;;;31.00;;
27899;SDS011;15243;50.726;7.080;2022-08-18T04:24:32;42.58;;;31.13;;
27899;SDS011;15243;50.726;7.080;2022-08-18T04:27:01;40.28;;;31.00;;
27899;SDS011;15243;50.726;7.080;2022-08-18T04:29:30;41.03;;;32.00;;
27899;SDS011;15243;50.726;7.080;2022-08-18T04:31:58;42.70;;;33.90;;
27899;SDS011;15243;50.726;7.080;2022-08-18T04:34:26;40.90;;;30.98;;
27899;SDS011;15243;50.726;7.080;2022-08-18T04:36:53;43.88;;;30.45;;
27899;SDS011;15243;50.726;7.080;2022-08-18T04:39:20;37.75;;;29.52;;
27899;SDS011;15243;50.726;7.080;2022-08-18T04:41:48;40.83;;;31.38;;
27899;SDS011;15243;50.726;7.080;2022-08-18T04:44:16;44.95;;;33.08;;
27899;SDS011;15243;50.726;7.080;2022-08-18T04:46:45;50.53;;;36.72;;
27899;SDS011;15243;50.726;7.080;2022-08-18T04:49:14;48.00;;;36.97;;
27899;SDS011;15243;50.726;7.080;2022-08-18T04:51:44;46.10;;;34.78;;
27899;SDS011;15243;50.726;7.080;2022-08-18T04:54:51;46.33;;;34.35;;
27899;SDS011;15243;50.726;7.080;2022-08-18T04:57:18;44.50;;;32.95;;
27899;SDS011;15243;50.726;7.080;2022-08-18T04:59:47;43.95;;;33.70;;
27899;SDS011;15243;50.726;7.080;2022-08-18T05:02:16;42.20;;;32.97;;
27899;SDS011;15243;50.726;7.080;2022-08-18T05:04:45;38.33;;;30.80;;
27899;SDS011;15243;50.726;7.080;2022-08-18T05:07:13;40.85;;;30.35;;
27899;SDS011;15243;50.726;7.080;2022-08-18T05:09:43;39.10;;;29.27;;
27899;SDS011;15243;50.726;7.080;2022-08-18T05:12:10;37.10;;;28.20;;
27899;SDS011;15243;50.726;7.080;2022-08-18T05:14:40;40.17;;;29.70;;
27899;SDS011;15243;50.726;7.080;2022-08-18T05:17:10;40.42;;;29.73;;
27899;SDS011;15243;50.726;7.080;2022-08-18T05:19:37;38.15;;;30.02;;
27899;SDS011;15243;50.726;7.080;2022-08-18T05:22:09;34.50;;;28.13;;
27899;SDS011;15243;50.726;7.080;2022-08-18T05:24:39;34.58;;;28.48;;
27899;SDS011;15243;50.726;7.080;2022-08-18T05:27:06;36.42;;;28.23;;
27899;SDS011;15243;50.726;7.080;2022-08-18T05:29:33;38.15;;;27.50;;
27899;SDS011;15243;50.726;7.080;2022-08-18T05:32:10;36.53;;;27.48;;
27899;SDS011;15243;50.726;7.080;2022-08-18T05:34:57;35.25;;;28.58;;
27899;SDS011;15243;50.726;7.080;2022-08-18T05:37:31;34.28;;;26.35;;
27899;SDS011;15243;50.726;7.080;2022-08-18T05:40:06;34.75;;;28.30;;
27899;SDS011;15243;50.726;7.080;2022-08-18T05:42:37;42.35;;;30.73;;
27899;SDS011;15243;50.726;7.080;2022-08-18T05:45:07;48.10;;;34.42;;
27899;SDS011;15243;50.726;7.080;2022-08-18T05:47:37;48.70;;;36.03;;
27899;SDS011;15243;50.726;7.080;2022-08-18T05:50:12;58.97;;;39.40;;
27899;SDS011;15243;50.726;7.080;2022-08-18T05:53:00;57.28;;;40.83;;
27899;SDS011;15243;50.726;7.080;2022-08-18T05:55:45;59.90;;;41.60;;
27899;SDS011;15243;50.726;7.080;2022-08-18T05:58:40;63.03;;;42.25;;
27899;SDS011;15243;50.726;7.080;2022-08-18T06:01:14;64.93;;;42.83;;
27899;SDS011;15243;50.726;7.080;2022-08-18T06:04:16;74.43;;;47.13;;
27899;SDS011;15243;50.726;7.080;2022-08-18T06:06:48;77.15;;;46.90;;
27899;SDS011;15243;50.726;7.080;2022-08-18T06:14:18;93.22;;;54.15;;
27899;SDS011;15243;50.726;7.080;2022-08-18T06:17:21;85.50;;;51.10;;
27899;SDS011;15243;50.726;7.080;2022-08-18T06:19:44;97.88;;;52.58;;
27899;SDS011;15243;50.726;7.080;2022-08-18T06:27:45;85.60;;;49.22;;
27899;SDS011;15243;50.726;7.080;2022-08-18T06:33:45;95.95;;;54.50;;
27899;SDS011;15243;50.726;7.080;2022-08-18T06:39:22;106.68;;;53.28;;
27899;SDS011;15243;50.726;7.080;2022-08-18T06:42:09;107.72;;;55.58;;
27899;SDS011;15243;50.726;7.080;2022-08-18T06:44:38;110.88;;;55.67;;
27899;SDS011;15243;50.726;7.080;2022-08-18T06:47:13;120.18;;;60.67;;
27899;SDS011;15243;50.726;7.080;2022-08-18T06:50:03;113.03;;;54.95;;
27899;SDS011;15243;50.726;7.080;2022-08-18T06:52:53;120.43;;;58.05;;
27899;SDS011;15243;50.726;7.080;2022-08-18T06:55:42;133.15;;;63.72;;
27899;SDS011;15243;50.726;7.080;2022-08-18T07:00:41;138.40;;;66.32;;
27899;SDS011;15243;50.726;7.080;2022-08-18T07:03:15;130.20;;;63.13;;
27899;SDS011;15243;50.726;7.080;2022-08-18T07:06:28;148.27;;;67.72;;
27899;SDS011;15243;50.726;7.080;2022-08-18T07:11:44;156.65;;;66.95;;
27899;SDS011;15243;50.726;7.080;2022-08-18T07:14:29;144.95;;;64.72;;
27899;SDS011;15243;50.726;7.080;2022-08-18T07:17:07;148.38;;;66.20;;
27899;SDS011;15243;50.726;7.080;2022-08-18T07:20:08;153.18;;;66.70;;
27899;SDS011;15243;50.726;7.080;2022-08-18T07:22:50;149.32;;;64.65;;
27899;SDS011;15243;50.726;7.080;2022-08-18T07:25:21;156.10;;;64.85;;
27899;SDS011;15243;50.726;7.080;2022-08-18T07:27:53;141.95;;;62.53;;
27899;SDS011;15243;50.726;7.080;2022-08-18T07:41:10;133.00;;;60.35;;
27899;SDS011;15243;50.726;7.080;2022-08-18T07:43:49;119.75;;;56.25;;
27899;SDS011;15243;50.726;7.080;2022-08-18T07:46:30;133.13;;;61.13;;
27899;SDS011;15243;50.726;7.080;2022-08-18T07:49:26;132.88;;;59.95;;
27899;SDS011;15243;50.726;7.080;2022-08-18T07:52:05;133.18;;;61.47;;
27899;SDS011;15243;50.726;7.080;2022-08-18T07:55:03;133.27;;;61.78;;
27899;SDS011;15243;50.726;7.080;2022-08-18T07:57:41;139.55;;;63.10;;
27899;SDS011;15243;50.726;7.080;2022-08-18T08:12:01;130.50;;;59.70;;
27899;SDS011;15243;50.726;7.080;2022-08-18T08:14:47;122.25;;;57.13;;
27899;SDS011;15243;50.726;7.080;2022-08-18T08:25:32;94.20;;;49.00;;
27899;SDS011;15243;50.726;7.080;2022-08-18T08:28:16;90.18;;;47.20;;
27899;SDS011;15243;50.726;7.080;2022-08-18T08:37:00;76.60;;;44.40;;
27899;SDS011;15243;50.726;7.080;2022-08-18T08:39:43;77.07;;;45.63;;
27899;SDS011;15243;50.726;7.080;2022-08-18T08:42:17;82.13;;;45.28;;
27899;SDS011;15243;50.726;7.080;2022-08-18T08:45:00;75.20;;;42.30;;
27899;SDS011;15243;50.726;7.080;2022-08-18T08:48:01;73.65;;;42.63;;
27899;SDS011;15243;50.726;7.080;2022-08-18T08:50:42;69.95;;;41.47;;
27899;SDS011;15243;50.726;7.080;2022-08-18T08:55:54;67.68;;;40.42;;
27899;SDS011;15243;50.726;7.080;2022-08-18T09:03:55;66.68;;;41.28;;
27899;SDS011;15243;50.726;7.080;2022-08-18T09:23:11;69.90;;;40.75;;
27899;SDS011;15243;50.726;7.080;2022-08-18T09:25:50;74.43;;;44.03;;
27899;SDS011;15243;50.726;7.080;2022-08-18T09:42:06;78.72;;;48.08;;
27899;SDS011;15243;50.726;7.080;2022-08-18T09:49:49;74.50;;;45.40;;
27899;SDS011;15243;50.726;7.080;2022-08-18T09:54:51;75.05;;;44.97;;
27899;SDS011;15243;50.726;7.080;2022-08-18T09:57:23;73.82;;;45.47;;
27899;SDS011;15243;50.726;7.080;2022-08-18T09:59:54;77.57;;;45.70;;
27899;SDS011;15243;50.726;7.080;2022-08-18T10:11:22;77.03;;;46.45;;
27899;SDS011;15243;50.726;7.080;2022-08-18T10:13:58;74.68;;;45.45;;
27899;SDS011;15243;50.726;7.080;2022-08-18T10:19:59;69.40;;;44.28;;
27899;SDS011;15243;50.726;7.080;2022-08-18T10:22:52;72.43;;;42.60;;
27899;SDS011;15243;50.726;7.080;2022-08-18T10:25:30;61.55;;;42.38;;
27899;SDS011;15243;50.726;7.080;2022-08-18T10:28:03;60.60;;;41.00;;
27899;SDS011;15243;50.726;7.080;2022-08-18T10:40:12;52.17;;;35.40;;
27899;SDS011;15243;50.726;7.080;2022-08-18T10:42:34;54.63;;;35.83;;
27899;SDS011;15243;50.726;7.080;2022-08-18T10:48:32;53.45;;;38.28;;
27899;SDS011;15243;50.726;7.080;2022-08-18T10:51:17;46.60;;;34.60;;
27899;SDS011;15243;50.726;7.080;2022-08-18T10:53:53;53.58;;;38.92;;
27899;SDS011;15243;50.726;7.080;2022-08-18T10:56:39;43.97;;;30.65;;
27899;SDS011;15243;50.726;7.080;2022-08-18T11:02:35;49.47;;;36.45;;
27899;SDS011;15243;50.726;7.080;2022-08-18T11:05:39;66.20;;;47.28;;
27899;SDS011;15243;50.726;7.080;2022-08-18T11:08:15;61.10;;;45.17;;
27899;SDS011;15243;50.726;7.080;2022-08-18T11:10:46;67.35;;;49.58;;
27899;SDS011;15243;50.726;7.080;2022-08-18T11:14:12;69.20;;;50.08;;
27899;SDS011;15243;50.726;7.080;2022-08-18T11:19:25;63.50;;;48.60;;
27899;SDS011;15243;50.726;7.080;2022-08-18T11:21:52;63.45;;;48.42;;
27899;SDS011;15243;50.726;7.080;2022-08-18T11:26:54;58.13;;;44.05;;
27899;SDS011;15243;50.726;7.080;2022-08-18T11:29:40;60.78;;;47.05;;
27899;SDS011;15243;50.726;7.080;2022-08-18T11:37:50;63.58;;;48.47;;
27899;SDS011;15243;50.726;7.080;2022-08-18T11:43:27;60.88;;;45.88;;
27899;SDS011;15243;50.726;7.080;2022-08-18T11:46:21;53.97;;;44.38;;
27899;SDS011;15243;50.726;7.080;2022-08-18T11:48:57;53.88;;;42.47;;
27899;SDS011;15243;50.726;7.080;2022-08-18T11:51:52;53.47;;;42.80;;
27899;SDS011;15243;50.726;7.080;2022-08-18T11:54:37;56.53;;;45.78;;
27899;SDS011;15243;50.726;7.080;2022-08-18T11:57:42;54.05;;;43.92;;
27899;SDS011;15243;50.726;7.080;2022-08-18T12:00:41;54.03;;;43.70;;
27899;SDS011;15243;50.726;7.080;2022-08-18T12:05:57;51.10;;;40.40;;
27899;SDS011;15243;50.726;7.080;2022-08-18T12:12:02;51.25;;;39.83;;
27899;SDS011;15243;50.726;7.080;2022-08-18T12:17:37;54.67;;;42.45;;
27899;SDS011;15243;50.726;7.080;2022-08-18T12:20:04;48.33;;;38.95;;
27899;SDS011;15243;50.726;7.080;2022-08-18T12:22:37;49.17;;;40.55;;
27899;SDS011;15243;50.726;7.080;2022-08-18T12:25:09;56.90;;;45.13;;
27899;SDS011;15243;50.726;7.080;2022-08-18T12:27:38;53.90;;;41.22;;
27899;SDS011;15243;50.726;7.080;2022-08-18T12:30:07;52.10;;;41.70;;
27899;SDS011;15243;50.726;7.080;2022-08-18T12:32:42;56.63;;;43.40;;
27899;SDS011;15243;50.726;7.080;2022-08-18T12:35:28;46.72;;;37.75;;
27899;SDS011;15243;50.726;7.080;2022-08-18T12:37:55;46.45;;;38.00;;
27899;SDS011;15243;50.726;7.080;2022-08-18T12:40:42;52.50;;;42.45;;
27899;SDS011;15243;50.726;7.080;2022-08-18T12:43:10;49.30;;;41.28;;
27899;SDS011;15243;50.726;7.080;2022-08-18T12:45:38;53.20;;;41.30;;
27899;SDS011;15243;50.726;7.080;2022-08-18T12:48:06;44.95;;;37.85;;
27899;SDS011;15243;50.726;7.080;2022-08-18T12:50:34;45.83;;;37.58;;
27899;SDS011;15243;50.726;7.080;2022-08-18T12:53:15;44.65;;;36.35;;
27899;SDS011;15243;50.726;7.080;2022-08-18T12:55:43;46.33;;;36.30;;
27899;SDS011;15243;50.726;7.080;2022-08-18T12:58:11;46.55;;;37.10;;
27899;SDS011;15243;50.726;7.080;2022-08-18T13:00:38;45.78;;;37.88;;
27899;SDS011;15243;50.726;7.080;2022-08-18T13:03:06;47.75;;;38.40;;
27899;SDS011;15243;50.726;7.080;2022-08-18T13:05:34;46.78;;;36.70;;
27899;SDS011;15243;50.726;7.080;2022-08-18T13:08:03;50.83;;;40.10;;
27899;SDS011;15243;50.726;7.080;2022-08-18T13:10:34;48.00;;;38.10;;
27899;SDS011;15243;50.726;7.080;2022-08-18T13:13:20;50.90;;;40.28;;
27899;SDS011;15243;50.726;7.080;2022-08-18T13:15:55;48.67;;;37.25;;
27899;SDS011;15243;50.726;7.080;2022-08-18T13:18:24;48.83;;;37.95;;
27899;SDS011;15243;50.726;7.080;2022-08-18T13:20:54;46.92;;;38.65;;
27899;SDS011;15243;50.726;7.080;2022-08-18T13:23:25;70.72;;;36.53;;
27899;SDS011;15243;50.726;7.080;2022-08-18T13:25:54;37.17;;;32.65;;
27899;SDS011;15243;50.726;7.080;2022-08-18T13:28:27;43.80;;;34.95;;
27899;SDS011;15243;50.726;7.080;2022-08-18T13:31:15;36.60;;;28.83;;
27899;SDS011;15243;50.726;7.080;2022-08-18T13:33:42;36.40;;;28.55;;
27899;SDS011;15243;50.726;7.080;2022-08-18T13:36:26;36.60;;;30.17;;
27899;SDS011;15243;50.726;7.080;2022-08-18T13:39:15;44.17;;;30.55;;
27899;SDS011;15243;50.726;7.080;2022-08-18T13:41:44;31.02;;;27.17;;
27899;SDS011;15243;50.726;7.080;2022-08-18T13:44:13;34.05;;;28.90;;
27899;SDS011;15243;50.726;7.080;2022-08-18T13:46:45;33.65;;;28.15;;
27899;SDS011;15243;50.726;7.080;2022-08-18T13:49:14;39.00;;;32.22;;
27899;SDS011;15243;50.726;7.080;2022-08-18T13:51:50;36.50;;;29.30;;
27899;SDS011;15243;50.726;7.080;2022-08-18T13:54:29;35.60;;;28.25;;
27899;SDS011;15243;50.726;7.080;2022-08-18T13:57:00;39.15;;;29.42;;
27899;SDS011;15243;50.726;7.080;2022-08-18T13:59:29;33.80;;;27.90;;
27899;SDS011;15243;50.726;7.080;2022-08-18T14:02:00;43.00;;;31.42;;
27899;SDS011;15243;50.726;7.080;2022-08-18T14:04:33;37.25;;;29.98;;
27899;SDS011;15243;50.726;7.080;2022-08-18T14:07:01;36.40;;;25.95;;
27899;SDS011;15243;50.726;7.080;2022-08-18T14:09:36;34.92;;;28.38;;
27899;SDS011;15243;50.726;7.080;2022-08-18T14:12:04;39.58;;;29.63;;
27899;SDS011;15243;50.726;7.080;2022-08-18T14:14:48;37.95;;;28.92;;
27899;SDS011;15243;50.726;7.080;2022-08-18T14:17:21;36.72;;;28.95;;
27899;SDS011;15243;50.726;7.080;2022-08-18T14:19:50;35.88;;;28.58;;
27899;SDS011;15243;50.726;7.080;2022-08-18T14:22:48;40.50;;;32.97;;
27899;SDS011;15243;50.726;7.080;2022-08-18T14:25:37;35.60;;;29.25;;
27899;SDS011;15243;50.726;7.080;2022-08-18T14:28:25;38.60;;;30.08;;
27899;SDS011;15243;50.726;7.080;2022-08-18T14:30:53;36.15;;;29.73;;
27899;SDS011;15243;50.726;7.080;2022-08-18T14:33:24;30.38;;;27.02;;
27899;SDS011;15243;50.726;7.080;2022-08-18T14:36:13;30.35;;;25.90;;
27899;SDS011;15243;50.726;7.080;2022-08-18T14:38:43;35.30;;;26.52;;
27899;SDS011;15243;50.726;7.080;2022-08-18T14:41:11;34.90;;;28.48;;
27899;SDS011;15243;50.726;7.080;2022-08-18T14:43:40;31.20;;;26.25;;
27899;SDS011;15243;50.726;7.080;2022-08-18T14:46:29;30.98;;;26.95;;
27899;SDS011;15243;50.726;7.080;2022-08-18T14:48:58;27.98;;;23.67;;
27899;SDS011;15243;50.726;7.080;2022-08-18T14:51:29;32.75;;;26.75;;
27899;SDS011;15243;50.726;7.080;2022-08-18T14:53:59;30.40;;;25.98;;
27899;SDS011;15243;50.726;7.080;2022-08-18T14:56:27;28.73;;;25.63;;
27899;SDS011;15243;50.726;7.080;2022-08-18T14:58:57;28.08;;;25.05;;
27899;SDS011;15243;50.726;7.080;2022-08-18T15:01:25;27.55;;;24.52;;
27899;SDS011;15243;50.726;7.080;2022-08-18T15:03:52;25.73;;;22.92;;
27899;SDS011;15243;50.726;7.080;2022-08-18T15:06:20;29.92;;;24.10;;
27899;SDS011;15243;50.726;7.080;2022-08-18T15:08:52;28.92;;;23.02;;
27899;SDS011;15243;50.726;7.080;2022-08-18T15:11:22;31.75;;;25.58;;
27899;SDS011;15243;50.726;7.080;2022-08-18T15:13:50;28.42;;;24.58;;
27899;SDS011;15243;50.726;7.080;2022-08-18T15:16:20;26.10;;;22.77;;
27899;SDS011;15243;50.726;7.080;2022-08-18T15:18:57;26.17;;;23.50;;
27899;SDS011;15243;50.726;7.080;2022-08-18T15:21:26;23.30;;;20.77;;
27899;SDS011;15243;50.726;7.080;2022-08-18T15:24:14;26.08;;;22.10;;
27899;SDS011;15243;50.726;7.080;2022-08-18T15:27:04;23.10;;;20.02;;
27899;SDS011;15243;50.726;7.080;2022-08-18T15:29:44;25.10;;;20.20;;
27899;SDS011;15243;50.726;7.080;2022-08-18T15:32:11;20.90;;;18.08;;
27899;SDS011;15243;50.726;7.080;2022-08-18T15:34:42;21.02;;;18.63;;
27899;SDS011;15243;50.726;7.080;2022-08-18T15:37:16;21.77;;;17.10;;
27899;SDS011;15243;50.726;7.080;2022-08-18T15:39:46;17.38;;;15.68;;
27899;SDS011;15243;50.726;7.080;2022-08-18T15:42:21;16.85;;;15.18;;
27899;SDS011;15243;50.726;7.080;2022-08-18T15:44:48;18.65;;;15.68;;
27899;SDS011;15243;50.726;7.080;2022-08-18T15:47:18;21.70;;;14.15;;
27899;SDS011;15243;50.726;7.080;2022-08-18T15:49:46;14.85;;;13.23;;
27899;SDS011;15243;50.726;7.080;2022-08-18T15:52:13;15.45;;;12.32;;
27899;SDS011;15243;50.726;7.080;2022-08-18T15:54:44;13.75;;;11.27;;
27899;SDS011;15243;50.726;7.080;2022-08-18T15:57:16;17.27;;;14.68;;
27899;SDS011;15243;50.726;7.080;2022-08-18T16:00:03;17.52;;;15.73;;
27899;SDS011;15243;50.726;7.080;2022-08-18T16:02:31;18.75;;;16.42;;
27899;SDS011;15243;50.726;7.080;2022-08-18T16:05:02;15.52;;;14.02;;
27899;SDS011;15243;50.726;7.080;2022-08-18T16:07:39;15.50;;;13.98;;
27899;SDS011;15243;50.726;7.080;2022-08-18T16:10:10;19.42;;;17.35;;
27899;SDS011;15243;50.726;7.080;2022-08-18T16:12:38;21.27;;;17.52;;
27899;SDS011;15243;50.726;7.080;2022-08-18T16:17:47;19.35;;;17.02;;
27899;SDS011;15243;50.726;7.080;2022-08-18T16:20:15;19.88;;;17.48;;
27899;SDS011;15243;50.726;7.080;2022-08-18T16:22:44;18.08;;;16.02;;
27899;SDS011;15243;50.726;7.080;2022-08-18T16:25:12;16.63;;;14.98;;
27899;SDS011;15243;50.726;7.080;2022-08-18T16:27:42;19.00;;;16.10;;
27899;SDS011;15243;50.726;7.080;2022-08-18T16:30:11;18.23;;;15.25;;
27899;SDS011;15243;50.726;7.080;2022-08-18T16:32:40;15.90;;;13.98;;
27899;SDS011;15243;50.726;7.080;2022-08-18T16:35:08;18.10;;;14.75;;
27899;SDS011;15243;50.726;7.080;2022-08-18T16:37:36;17.60;;;13.57;;
27899;SDS011;15243;50.726;7.080;2022-08-18T16:40:03;14.95;;;13.43;;
27899;SDS011;15243;50.726;7.080;2022-08-18T16:42:31;17.58;;;14.00;;
27899;SDS011;15243;50.726;7.080;2022-08-18T16:44:59;14.02;;;12.55;;
27899;SDS011;15243;50.726;7.080;2022-08-18T16:47:26;12.35;;;11.10;;
27899;SDS011;15243;50.726;7.080;2022-08-18T16:49:53;11.70;;;9.52;;
27899;SDS011;15243;50.726;7.080;2022-08-18T16:52:24;10.27;;;9.27;;
27899;SDS011;15243;50.726;7.080;2022-08-18T16:54:52;10.98;;;8.70;;
27899;SDS011;15243;50.726;7.080;2022-08-18T16:57:23;12.48;;;9.25;;
27899;SDS011;15243;50.726;7.080;2022-08-18T17:00:21;10.80;;;8.20;;
27899;SDS011;15243;50.726;7.080;2022-08-18T17:03:07;9.60;;;8.02;;
27899;SDS011;15243;50.726;7.080;2022-08-18T17:06:03;11.20;;;8.63;;
27899;SDS011;15243;50.726;7.080;2022-08-18T17:08:33;10.88;;;8.40;;
27899;SDS011;15243;50.726;7.080;2022-08-18T17:11:01;10.85;;;8.95;;
27899;SDS011;15243;50.726;7.080;2022-08-18T17:13:30;12.20;;;8.02;;
27899;SDS011;15243;50.726;7.080;2022-08-18T17:15:57;10.30;;;8.27;;
27899;SDS011;15243;50.726;7.080;2022-08-18T17:18:24;10.48;;;9.38;;
27899;SDS011;15243;50.726;7.080;2022-08-18T17:20:52;12.27;;;9.32;;
27899;SDS011;15243;50.726;7.080;2022-08-18T17:23:20;11.35;;;9.23;;
27899;SDS011;15243;50.726;7.080;2022-08-18T17:25:47;9.75;;;8.85;;
27899;SDS011;15243;50.726;7.080;2022-08-18T17:28:16;10.40;;;8.60;;
27899;SDS011;15243;50.726;7.080;2022-08-18T17:30:51;10.43;;;8.82;;
27899;SDS011;15243;50.726;7.080;2022-08-18T17:33:20;13.93;;;9.07;;
27899;SDS011;15243;50.726;7.080;2022-08-18T17:35:50;12.00;;;9.50;;
27899;SDS011;15243;50.726;7.080;2022-08-18T17:38:23;11.15;;;9.77;;
27899;SDS011;15243;50.726;7.080;2022-08-18T17:40:54;13.30;;;9.82;;
27899;SDS011;15243;50.726;7.080;2022-08-18T17:43:23;12.90;;;9.88;;
27899;SDS011;15243;50.726;7.080;2022-08-18T17:45:55;12.60;;;10.37;;
27899;SDS011;15243;50.726;7.080;2022-08-18T17:48:29;12.75;;;11.45;;